createdAt,value
2022-08-24T00:01:58.983Z,99.90
2022-08-24T00:04:28.318Z,99.90
2022-08-24T00:07:00.266Z,99.90
2022-08-24T00:09:29.858Z,99.90
2022-08-24T00:11:57.999Z,99.90
2022-08-24T00:14:26.327Z,99.90
2022-08-24T00:16:55.281Z,99.90
2022-08-24T00:19:23.544Z,99.90
2022-08-24T00:21:52.236Z,99.90
2022-08-24T00:24:20.632Z,99.90
2022-08-24T00:26:50.240Z,99.90
2022-08-24T00:29:19.381Z,99.90
2022-08-24T00:31:47.831Z,99.90
2022-08-24T00:34:17.819Z,99.90
2022-08-24T00:36:46.669Z,99.90
2022-08-24T00:39:15.045Z,99.90
2022-08-24T00:41:44.988Z,99.90
2022-08-24T00:44:16.593Z,99.90
2022-08-24T00:46:49.425Z,99.90
2022-08-24T00:49:24.819Z,99.90
2022-08-24T00:52:04.687Z,99.90
2022-08-24T00:54:34.976Z,99.90
2022-08-24T00:57:07.511Z,99.90
2022-08-24T00:59:43.783Z,99.90
2022-08-24T01:02:16.788Z,99.90
2022-08-24T01:04:50.246Z,99.90
2022-08-24T01:07:18.716Z,99.90
2022-08-24T01:09:47.073Z,99.90
2022-08-24T01:12:15.334Z,99.90
2022-08-24T01:14:45.452Z,99.90
2022-08-24T01:17:35.037Z,99.90
2022-08-24T01:20:09.293Z,99.90
2022-08-24T01:22:51.033Z,99.90
2022-08-24T01:25:21.352Z,99.90
2022-08-24T01:27:52.910Z,99.90
2022-08-24T01:30:22.341Z,99.90
2022-08-24T01:33:02.640Z,99.90
2022-08-24T01:35:32.475Z,99.90
2022-08-24T01:38:03.894Z,99.90
2022-08-24T01:40:38.249Z,99.90
2022-08-24T01:43:08.378Z,99.90
2022-08-24T01:45:37.421Z,99.90
2022-08-24T01:48:06.019Z,99.90
2022-08-24T01:50:35.015Z,99.90
2022-08-24T01:53:06.276Z,99.90
2022-08-24T01:55:36.953Z,99.90
2022-08-24T01:58:05.587Z,99.90
2022-08-24T02:00:35.032Z,99.90
2022-08-24T02:03:03.837Z,99.90
2022-08-24T02:05:32.219Z,99.90
2022-08-24T02:08:00.407Z,99.90
2022-08-24T02:10:29.658Z,99.90
2022-08-24T02:13:00.106Z,99.90
2022-08-24T02:15:31.409Z,99.90
2022-08-24T02:18:00.401Z,99.90
2022-08-24T02:20:29.320Z,99.90
2022-08-24T02:22:58.196Z,99.90
2022-08-24T02:25:30.132Z,99.90
2022-08-24T02:28:00.664Z,99.90
2022-08-24T02:30:30.016Z,99.90
2022-08-24T02:32:59.111Z,99.90
2022-08-24T02:35:29.462Z,99.90
2022-08-24T02:37:58.650Z,99.90
2022-08-24T02:40:27.342Z,99.90
2022-08-24T02:42:55.683Z,99.90
2022-08-24T02:45:25.491Z,99.90
2022-08-24T02:47:53.798Z,99.90
2022-08-24T02:50:21.975Z,99.90
2022-08-24T02:52:50.321Z,99.90
2022-08-24T02:55:20.508Z,99.90
2022-08-24T02:57:50.552Z,99.90
2022-08-24T03:00:21.450Z,99.90
2022-08-24T03:02:51.563Z,99.90
2022-08-24T03:05:20.344Z,99.90
2022-08-24T03:07:49.623Z,99.90
2022-08-24T03:10:21.395Z,99.90
2022-08-24T03:12:50.439Z,99.90
2022-08-24T03:15:21.723Z,99.90
2022-08-24T03:17:52.219Z,99.90
2022-08-24T03:20:22.824Z,99.90
2022-08-24T03:22:51.152Z,99.90
2022-08-24T03:25:20.696Z,99.90
2022-08-24T03:27:48.919Z,99.90
2022-08-24T03:30:19.249Z,99.90
2022-08-24T03:32:47.502Z,99.90
2022-08-24T03:35:18.659Z,99.90
2022-08-24T03:37:47.723Z,99.90
2022-08-24T03:40:24.929Z,99.90
2022-08-24T03:42:54.291Z,99.90
2022-08-24T03:45:23.595Z,99.90
2022-08-24T03:47:52.020Z,99.90
2022-08-24T03:50:22.057Z,99.90
2022-08-24T03:52:50.364Z,99.90
2022-08-24T03:55:18.668Z,99.90
2022-08-24T03:57:47.205Z,99.90
2022-08-24T04:00:16.205Z,99.90
2022-08-24T04:02:45.420Z,99.90
2022-08-24T04:05:14.357Z,99.90
2022-08-24T04:07:43.924Z,99.90
2022-08-24T04:10:15.223Z,99.90
2022-08-24T04:12:43.512Z,99.90
2022-08-24T04:15:13.153Z,99.90
2022-08-24T04:17:41.381Z,99.90
2022-08-24T04:20:10.796Z,99.90
2022-08-24T04:22:39.017Z,99.90
2022-08-24T04:25:10.061Z,99.90
2022-08-24T04:27:38.873Z,99.90
2022-08-24T04:30:08.100Z,99.90
2022-08-24T04:32:36.445Z,99.90
2022-08-24T04:35:06.655Z,99.90
2022-08-24T04:37:34.817Z,99.90
2022-08-24T04:40:03.212Z,99.90
2022-08-24T04:42:33.933Z,99.90
2022-08-24T04:45:02.941Z,99.90
2022-08-24T04:47:31.126Z,99.90
2022-08-24T04:49:59.292Z,99.90
2022-08-24T04:52:27.485Z,99.90
2022-08-24T04:54:55.753Z,99.90
2022-08-24T04:57:23.923Z,99.90
2022-08-24T04:59:57.528Z,99.90
2022-08-24T05:02:26.002Z,99.90
2022-08-24T05:04:55.376Z,99.90
2022-08-24T05:07:23.621Z,99.90
2022-08-24T05:09:52.381Z,99.90
2022-08-24T05:12:21.143Z,99.90
2022-08-24T05:14:50.636Z,99.90
2022-08-24T05:17:20.164Z,99.90
2022-08-24T05:19:49.239Z,99.90
2022-08-24T05:22:17.433Z,99.90
2022-08-24T05:24:45.648Z,99.90
2022-08-24T05:27:14.153Z,99.90
2022-08-24T05:29:42.716Z,99.90
2022-08-24T05:32:11.286Z,99.90
2022-08-24T05:34:40.847Z,99.90
2022-08-24T05:37:10.373Z,99.90
2022-08-24T05:39:38.884Z,99.90
2022-08-24T05:42:07.240Z,99.90
2022-08-24T05:44:35.408Z,99.90
2022-08-24T05:47:03.840Z,99.90
2022-08-24T05:49:32.153Z,99.90
2022-08-24T05:52:02.246Z,99.90
2022-08-24T05:54:30.395Z,99.90
2022-08-24T05:57:04.534Z,99.90
2022-08-24T05:59:33.327Z,99.90
2022-08-24T06:02:01.620Z,99.90
2022-08-24T06:04:30.017Z,99.90
2022-08-24T06:06:58.961Z,99.90
2022-08-24T06:09:28.481Z,99.90
2022-08-24T06:11:56.700Z,99.90
2022-08-24T06:14:27.009Z,99.90
2022-08-24T06:16:55.568Z,99.90
2022-08-24T06:19:26.930Z,99.90
2022-08-24T06:21:56.342Z,99.90
2022-08-24T06:24:45.408Z,99.90
2022-08-24T06:27:21.264Z,99.90
2022-08-24T06:29:50.056Z,99.90
2022-08-24T06:32:18.416Z,99.90
2022-08-24T06:34:46.696Z,99.90
2022-08-24T06:37:16.818Z,99.90
2022-08-24T06:39:45.333Z,99.90
2022-08-24T06:42:14.954Z,99.90
2022-08-24T06:44:43.383Z,99.90
2022-08-24T06:47:12.449Z,99.90
2022-08-24T06:49:40.627Z,99.90
2022-08-24T06:52:10.141Z,99.90
2022-08-24T06:54:38.595Z,99.90
2022-08-24T06:57:07.606Z,99.90
2022-08-24T06:59:37.221Z,99.90
2022-08-24T07:02:05.532Z,99.90
2022-08-24T07:04:34.687Z,99.90
2022-08-24T07:07:02.884Z,99.90
2022-08-24T07:09:33.355Z,99.90
2022-08-24T07:12:01.784Z,99.90
2022-08-24T07:14:29.976Z,99.90
2022-08-24T07:16:59.662Z,99.90
2022-08-24T07:19:28.009Z,99.90
2022-08-24T07:21:58.222Z,99.90
2022-08-24T07:24:26.743Z,99.90
2022-08-24T07:26:55.163Z,99.90
2022-08-24T07:29:46.421Z,99.90
2022-08-24T07:32:12.849Z,99.90
2022-08-24T07:34:40.998Z,99.90
2022-08-24T07:37:09.199Z,99.90
2022-08-24T07:39:37.385Z,99.90
2022-08-24T07:42:16.067Z,99.90
2022-08-24T07:44:49.101Z,99.90
2022-08-24T07:47:37.410Z,99.90
2022-08-24T07:50:07.608Z,99.90
2022-08-24T07:52:35.832Z,99.90
2022-08-24T07:55:04.457Z,99.90
2022-08-24T07:57:32.919Z,99.90
2022-08-24T08:00:01.533Z,99.90
2022-08-24T08:02:34.939Z,99.90
2022-08-24T08:05:04.868Z,99.90
2022-08-24T08:07:33.109Z,99.90
2022-08-24T08:10:02.451Z,99.90
2022-08-24T08:12:30.617Z,99.90
2022-08-24T08:14:58.832Z,99.90
2022-08-24T08:17:27.348Z,99.90
2022-08-24T08:19:56.908Z,99.90
2022-08-24T08:22:42.404Z,99.90
2022-08-24T08:25:10.775Z,99.90
2022-08-24T08:27:39.025Z,99.90
2022-08-24T08:30:08.394Z,99.90
2022-08-24T08:32:36.615Z,99.90
2022-08-24T08:35:07.003Z,99.90
2022-08-24T08:40:06.658Z,99.90
2022-08-24T08:42:49.171Z,99.90
2022-08-24T08:45:27.716Z,99.90
2022-08-24T08:48:38.445Z,99.90
2022-08-24T08:51:43.796Z,99.90
2022-08-24T08:54:24.423Z,99.90
2022-08-24T08:57:17.720Z,99.90
2022-08-24T09:00:01.861Z,99.90
2022-08-24T09:02:53.462Z,99.90
2022-08-24T09:06:00.160Z,99.90
2022-08-24T09:08:41.979Z,99.90
2022-08-24T09:11:24.041Z,99.90
2022-08-24T09:14:17.361Z,99.90
2022-08-24T09:17:09.580Z,99.90
2022-08-24T09:20:00.568Z,99.90
2022-08-24T09:22:28.956Z,99.90
2022-08-24T09:25:20.359Z,99.90
2022-08-24T09:28:14.590Z,99.90
2022-08-24T09:31:03.624Z,99.90
2022-08-24T09:33:38.408Z,99.90
2022-08-24T09:36:10.207Z,99.90
2022-08-24T09:39:00.855Z,99.90
2022-08-24T09:42:07.080Z,99.90
2022-08-24T09:45:13.228Z,99.90
2022-08-24T09:48:04.059Z,99.90
2022-08-24T09:51:11.840Z,99.90
2022-08-24T09:54:14.236Z,99.90
2022-08-24T09:57:11.559Z,99.90
2022-08-24T10:00:10.000Z,99.90
2022-08-24T10:03:00.240Z,99.90
2022-08-24T10:05:47.301Z,99.90
2022-08-24T10:08:27.222Z,99.90
2022-08-24T10:11:06.695Z,99.90
2022-08-24T10:13:47.746Z,99.90
2022-08-24T10:16:28.422Z,99.90
2022-08-24T10:19:08.205Z,99.90
2022-08-24T10:21:51.372Z,99.90
2022-08-24T10:24:46.605Z,99.90
2022-08-24T10:27:32.355Z,97.80
2022-08-24T10:30:35.204Z,95.50
2022-08-24T10:33:15.612Z,96.30
2022-08-24T10:35:59.530Z,97.70
2022-08-24T10:38:53.259Z,98.10
2022-08-24T10:42:00.012Z,97.10
2022-08-24T10:44:46.992Z,98.60
2022-08-24T10:47:22.370Z,99.90
2022-08-24T10:50:30.874Z,99.90
2022-08-24T10:53:23.848Z,99.90
2022-08-24T10:56:09.280Z,99.90
2022-08-24T10:59:09.845Z,99.90
2022-08-24T11:01:39.463Z,99.90
2022-08-24T11:04:11.983Z,99.90
2022-08-24T11:06:43.655Z,99.90
2022-08-24T11:09:18.633Z,99.90
2022-08-24T11:11:49.983Z,99.40
2022-08-24T11:14:29.126Z,97.80
2022-08-24T11:17:17.312Z,98.70
2022-08-24T11:19:47.036Z,99.90
2022-08-24T11:22:31.367Z,99.90
2022-08-24T11:25:02.235Z,99.90
2022-08-24T11:27:35.605Z,99.90
2022-08-24T11:30:10.963Z,99.50
2022-08-24T11:32:44.006Z,98.90
2022-08-24T11:35:26.545Z,98.50
2022-08-24T11:37:57.789Z,96.90
2022-08-24T11:40:29.354Z,96.80
2022-08-24T11:43:13.794Z,95.10
2022-08-24T11:45:46.532Z,91.40
2022-08-24T11:48:36.127Z,93.20
2022-08-24T11:51:15.724Z,92.90
2022-08-24T11:53:56.624Z,93.70
2022-08-24T11:56:33.086Z,94.80
2022-08-24T11:59:11.174Z,92.20
2022-08-24T12:01:45.864Z,85.70
2022-08-24T12:04:34.471Z,86.00
2022-08-24T12:07:20.897Z,83.10
2022-08-24T12:10:03.875Z,88.80
2022-08-24T12:12:37.756Z,85.90
2022-08-24T12:15:12.132Z,88.70
2022-08-24T12:17:46.690Z,93.10
2022-08-24T12:20:24.141Z,94.20
2022-08-24T12:22:57.873Z,93.80
2022-08-24T12:25:45.628Z,97.40
2022-08-24T12:28:16.018Z,95.30
2022-08-24T12:30:44.461Z,95.20
2022-08-24T12:33:15.492Z,97.80
2022-08-24T12:35:47.574Z,98.70
2022-08-24T12:38:22.373Z,98.00
2022-08-24T12:40:56.851Z,95.70
2022-08-24T12:43:32.610Z,93.40
2022-08-24T12:46:02.414Z,89.60
2022-08-24T12:48:37.602Z,85.60
2022-08-24T12:51:19.775Z,87.30
2022-08-24T12:54:13.500Z,83.70
2022-08-24T12:57:02.523Z,75.20
2022-08-24T12:59:36.769Z,72.60
2022-08-24T13:02:09.546Z,78.80
2022-08-24T13:04:41.716Z,78.50
2022-08-24T13:07:26.751Z,77.50
2022-08-24T13:10:10.239Z,78.70
2022-08-24T13:13:09.422Z,72.10
2022-08-24T13:16:03.195Z,73.50
2022-08-24T13:18:51.608Z,75.90
2022-08-24T13:21:45.833Z,82.90
2022-08-24T13:24:53.450Z,90.40
2022-08-24T13:28:12.608Z,91.10
2022-08-24T13:31:25.646Z,92.40
2022-08-24T13:34:00.143Z,93.40
2022-08-24T13:36:45.623Z,94.60
2022-08-24T13:39:35.750Z,95.20
2022-08-24T13:42:19.856Z,96.60
2022-08-24T13:45:02.664Z,94.60
2022-08-24T13:47:45.867Z,91.00
2022-08-24T13:50:31.287Z,90.70
2022-08-24T13:53:31.267Z,86.50
2022-08-24T13:56:33.026Z,85.10
2022-08-24T13:59:09.878Z,86.70
2022-08-24T14:01:49.930Z,90.30
2022-08-24T14:04:33.564Z,89.00
2022-08-24T14:07:15.687Z,85.70
2022-08-24T14:09:56.160Z,79.90
2022-08-24T14:12:39.994Z,78.70
2022-08-24T14:15:20.941Z,74.80
2022-08-24T14:17:56.759Z,82.90
2022-08-24T14:20:50.412Z,90.50
2022-08-24T14:23:33.848Z,94.30
2022-08-24T14:26:53.016Z,96.50
2022-08-24T14:29:35.033Z,98.80
2022-08-24T14:32:29.439Z,95.70
2022-08-24T14:35:19.693Z,95.40
2022-08-24T14:38:01.632Z,93.10
2022-08-24T14:40:37.201Z,91.00
2022-08-24T14:43:28.563Z,88.00
2022-08-24T14:46:06.520Z,80.60
2022-08-24T14:48:43.496Z,79.70
2022-08-24T14:51:25.367Z,80.80
2022-08-24T14:54:02.158Z,85.80
2022-08-24T14:56:47.293Z,91.30
2022-08-24T14:59:25.455Z,93.10
2022-08-24T15:02:16.430Z,91.60
2022-08-24T15:04:49.495Z,91.00
2022-08-24T15:07:36.515Z,90.80
2022-08-24T15:10:15.455Z,88.20
2022-08-24T15:12:49.935Z,83.20
2022-08-24T15:15:31.227Z,79.20
2022-08-24T15:18:06.512Z,81.60
2022-08-24T15:20:59.437Z,80.90
2022-08-24T15:23:45.479Z,82.40
2022-08-24T15:26:20.780Z,84.10
2022-08-24T15:28:56.924Z,86.40
2022-08-24T15:31:29.245Z,89.10
2022-08-24T15:33:59.599Z,86.80
2022-08-24T15:36:30.145Z,88.20
2022-08-24T15:38:58.485Z,85.70
2022-08-24T15:41:31.835Z,84.70
2022-08-24T15:44:05.163Z,80.80
2022-08-24T15:46:37.168Z,79.80
2022-08-24T15:49:09.374Z,80.80
2022-08-24T15:51:47.492Z,84.10
2022-08-24T15:54:28.500Z,84.60
2022-08-24T15:56:59.317Z,85.10
2022-08-24T15:59:31.248Z,89.80
2022-08-24T16:02:28.623Z,92.50
2022-08-24T16:05:18.711Z,94.60
2022-08-24T16:08:07.908Z,96.50
2022-08-24T16:10:40.482Z,94.40
2022-08-24T16:13:13.326Z,93.90
2022-08-24T16:15:49.738Z,93.40
2022-08-24T16:18:20.286Z,92.70
2022-08-24T16:20:50.959Z,92.30
2022-08-24T16:23:25.837Z,91.40
2022-08-24T16:26:25.651Z,91.10
2022-08-24T16:28:54.972Z,91.50
2022-08-24T16:31:51.769Z,91.70
2022-08-24T16:34:30.160Z,92.30
2022-08-24T16:36:58.556Z,93.00
2022-08-24T16:39:27.286Z,94.10
2022-08-24T16:41:58.607Z,95.00
2022-08-24T16:44:32.376Z,96.00
2022-08-24T16:47:02.775Z,96.90
2022-08-24T16:49:31.905Z,97.30
2022-08-24T16:52:00.128Z,97.90
2022-08-24T16:54:28.320Z,98.60
2022-08-24T16:56:57.877Z,99.20
2022-08-24T16:59:29.262Z,99.50
2022-08-24T17:01:57.873Z,99.90
2022-08-24T17:04:27.672Z,99.90
2022-08-24T17:06:57.798Z,99.90
2022-08-24T17:09:25.981Z,99.90
2022-08-24T17:11:54.232Z,99.90
2022-08-24T17:14:22.422Z,99.90
2022-08-24T17:16:50.869Z,99.90
2022-08-24T17:19:20.679Z,99.90
2022-08-24T17:21:50.486Z,99.90
2022-08-24T17:24:22.183Z,99.90
2022-08-24T17:26:52.297Z,99.90
2022-08-24T17:29:20.818Z,99.90
2022-08-24T17:31:50.177Z,99.90
2022-08-24T17:34:20.451Z,99.90
2022-08-24T17:36:51.583Z,99.90
2022-08-24T17:39:20.832Z,99.90
2022-08-24T17:41:49.320Z,99.90
2022-08-24T17:44:23.644Z,99.90
2022-08-24T17:46:53.193Z,99.90
2022-08-24T17:49:22.249Z,99.90
2022-08-24T17:51:52.174Z,99.90
2022-08-24T17:54:20.397Z,99.90
2022-08-24T17:56:50.936Z,99.90
2022-08-24T17:59:27.050Z,99.90
2022-08-24T18:01:57.127Z,99.90
2022-08-24T18:04:27.619Z,99.90
2022-08-24T18:06:58.241Z,99.90
2022-08-24T18:09:31.176Z,99.90
2022-08-24T18:12:04.168Z,99.90
2022-08-24T18:14:34.514Z,99.90
2022-08-24T18:17:05.391Z,99.90
2022-08-24T18:19:34.956Z,99.90
2022-08-24T18:22:05.960Z,99.90
2022-08-24T18:24:34.968Z,99.90
2022-08-24T18:27:10.376Z,99.90
2022-08-24T18:29:40.294Z,99.90
2022-08-24T18:32:11.851Z,99.90
2022-08-24T18:34:40.703Z,99.90
2022-08-24T18:37:10.304Z,99.90
2022-08-24T18:39:38.480Z,99.90
2022-08-24T18:42:09.178Z,99.90
2022-08-24T18:44:38.799Z,99.90
2022-08-24T18:47:07.189Z,99.90
2022-08-24T18:49:36.120Z,99.90
2022-08-24T18:52:05.076Z,99.90
2022-08-24T18:54:37.796Z,99.90
2022-08-24T18:57:07.058Z,99.90
2022-08-24T18:59:35.971Z,99.90
2022-08-24T19:02:32.004Z,99.90
2022-08-24T19:05:03.581Z,99.90
2022-08-24T19:07:33.769Z,99.90
2022-08-24T19:10:04.469Z,99.90
2022-08-24T19:12:35.156Z,99.90
2022-08-24T19:15:03.691Z,99.90
2022-08-24T19:17:32.260Z,99.90
2022-08-24T19:20:00.597Z,99.90
2022-08-24T19:22:30.676Z,99.90
2022-08-24T19:24:59.632Z,99.90
2022-08-24T19:27:29.182Z,99.90
2022-08-24T19:29:58.890Z,99.90
2022-08-24T19:32:30.602Z,99.90
2022-08-24T19:35:00.416Z,99.90
2022-08-24T19:37:28.636Z,99.90
2022-08-24T19:39:57.929Z,99.90
2022-08-24T19:42:29.064Z,99.90
2022-08-24T19:45:18.859Z,99.90
2022-08-24T19:47:47.232Z,99.90
2022-08-24T19:50:21.212Z,99.90
2022-08-24T19:52:49.888Z,99.90
2022-08-24T19:55:18.120Z,99.90
2022-08-24T19:57:54.488Z,99.90
2022-08-24T20:00:26.745Z,99.90
2022-08-24T20:02:57.019Z,99.90
2022-08-24T20:05:28.736Z,99.90
2022-08-24T20:07:57.651Z,99.90
2022-08-24T20:10:26.222Z,99.90
2022-08-24T20:12:55.976Z,99.90
2022-08-24T20:15:25.047Z,99.90
2022-08-24T20:17:56.522Z,99.90
2022-08-24T20:20:26.149Z,99.90
2022-08-24T20:22:54.583Z,99.90
2022-08-24T20:25:22.785Z,99.90
2022-08-24T20:28:02.173Z,99.90
2022-08-24T20:30:40.873Z,99.90
2022-08-24T20:33:15.461Z,99.90
2022-08-24T20:35:44.178Z,99.90
2022-08-24T20:38:15.569Z,99.90
2022-08-24T20:40:43.968Z,99.90
2022-08-24T20:43:12.737Z,99.90
2022-08-24T20:45:42.763Z,99.90
2022-08-24T20:48:13.133Z,99.90
2022-08-24T20:50:43.621Z,99.90
2022-08-24T20:53:12.440Z,99.90
2022-08-24T20:55:41.483Z,99.90
2022-08-24T20:58:10.186Z,99.90
2022-08-24T21:00:41.024Z,99.90
2022-08-24T21:03:10.863Z,99.90
2022-08-24T21:05:40.253Z,99.90
2022-08-24T21:08:08.523Z,99.90
2022-08-24T21:10:36.756Z,99.90
2022-08-24T21:13:05.930Z,99.90
2022-08-24T21:15:34.871Z,99.90
2022-08-24T21:18:03.410Z,99.90
2022-08-24T21:20:33.633Z,99.90
2022-08-24T21:23:01.876Z,99.90
2022-08-24T21:25:31.046Z,99.90
2022-08-24T21:28:03.019Z,99.90
2022-08-24T21:30:34.830Z,99.90
2022-08-24T21:33:24.400Z,99.90
2022-08-24T21:35:55.006Z,99.90
2022-08-24T21:38:23.400Z,99.90
2022-08-24T21:40:54.319Z,99.90
2022-08-24T21:43:22.534Z,99.90
2022-08-24T21:45:51.564Z,99.90
2022-08-24T21:48:20.327Z,99.90
2022-08-24T21:50:48.764Z,99.90
2022-08-24T21:53:18.519Z,99.90
2022-08-24T21:55:47.073Z,99.90
2022-08-24T21:58:15.268Z,99.90
2022-08-24T22:00:43.867Z,99.90
2022-08-24T22:03:12.189Z,99.90
2022-08-24T22:05:40.523Z,99.90
2022-08-24T22:08:08.791Z,99.90
2022-08-24T22:10:38.437Z,99.90
2022-08-24T22:13:06.994Z,99.90
2022-08-24T22:15:36.275Z,99.90
2022-08-24T22:18:04.570Z,99.90
2022-08-24T22:20:32.807Z,99.90
2022-08-24T22:23:01.100Z,99.90
2022-08-24T22:25:30.118Z,99.90
2022-08-24T22:27:59.827Z,99.90
2022-08-24T22:30:27.995Z,99.90
2022-08-24T22:32:56.249Z,99.90
2022-08-24T22:35:24.414Z,99.90
2022-08-24T22:37:53.068Z,99.90
2022-08-24T22:40:21.528Z,99.90
2022-08-24T22:42:49.748Z,99.90
2022-08-24T22:45:19.449Z,99.90
2022-08-24T22:47:47.656Z,99.90
2022-08-24T22:50:15.868Z,99.90
2022-08-24T22:52:44.325Z,99.90
2022-08-24T22:55:13.156Z,99.90
2022-08-24T22:57:41.364Z,99.90
2022-08-24T23:00:11.457Z,99.90
2022-08-24T23:02:46.498Z,99.90
2022-08-24T23:05:14.798Z,99.90
2022-08-24T23:07:43.080Z,99.90
2022-08-24T23:10:14.548Z,99.90
2022-08-24T23:12:42.752Z,99.90
2022-08-24T23:15:11.516Z,99.90
2022-08-24T23:17:39.700Z,99.90
2022-08-24T23:20:10.383Z,99.90
2022-08-24T23:22:43.521Z,99.90
2022-08-24T23:25:13.858Z,99.90
2022-08-24T23:27:46.587Z,99.90
2022-08-24T23:30:18.040Z,99.90
2022-08-24T23:32:46.295Z,99.90
2022-08-24T23:35:16.088Z,99.90
2022-08-24T23:37:44.369Z,99.90
2022-08-24T23:40:13.468Z,99.90
2022-08-24T23:42:41.725Z,99.90
2022-08-24T23:45:12.236Z,99.90
2022-08-24T23:47:41.266Z,99.90
2022-08-24T23:50:11.462Z,99.90
2022-08-24T23:52:41.535Z,99.90
2022-08-24T23:55:21.648Z,99.90
2022-08-24T23:57:50.803Z,99.90
